Time;durP1;ratioP1;P1;durP2;ratioP2;P2;SDS_P1;SDS_P2;PMS_P1;PMS_P2;Temp;Humidity;BMP_temperature;BMP_pressure;BME280_temperature;BME280_humidity;BME280_pressure;Samples;Min_cycle;Max_cycle;Signal;HPM_P1;HPM_P2
2023/01/12 00:01:37;;;;;;;17.65;8.32;;;;;;;-6.57;100.00;99970.13;5137817;28;20084;-62
2023/01/12 00:04:05;;;;;;;15.10;6.13;;;;;;;-6.66;100.00;99977.69;5138186;28;20255;-61
2023/01/12 00:06:32;;;;;;;19.02;8.77;;;;;;;-6.58;100.00;99989.06;5138403;28;20108;-61
2023/01/12 00:09:01;;;;;;;18.50;6.80;;;;;;;-6.60;100.00;99999.13;5138043;28;20146;-63
2023/01/12 00:11:27;;;;;;;8.02;4.10;;;;;;;-6.83;100.00;100019.41;5138449;28;20058;-62
2023/01/12 00:13:54;;;;;;;20.63;8.32;;;;;;;-6.80;100.00;100015.47;5137942;28;20051;-64
2023/01/12 00:16:36;;;;;;;17.00;8.57;;;;;;;-6.49;100.00;100025.00;5138325;28;20058;-61
2023/01/12 00:19:05;;;;;;;17.85;7.70;;;;;;;-6.82;100.00;100029.03;5138228;28;20142;-60
2023/01/12 00:21:38;;;;;;;20.88;7.50;;;;;;;-6.76;100.00;100038.78;5138018;28;20047;-65
2023/01/12 00:24:07;;;;;;;13.50;6.22;;;;;;;-6.83;100.00;100034.56;5138033;28;20055;-65
2023/01/12 00:26:33;;;;;;;27.17;8.13;;;;;;;-7.05;100.00;100032.47;5137905;28;20047;-64
2023/01/12 00:29:00;;;;;;;21.27;7.88;;;;;;;-6.86;100.00;100025.22;5137917;28;20082;-62
2023/01/12 00:31:26;;;;;;;15.88;8.63;;;;;;;-6.70;100.00;100024.50;5137762;28;20317;-62
2023/01/12 00:33:52;;;;;;;22.52;8.82;;;;;;;-6.90;100.00;100032.84;5137978;28;20065;-60
2023/01/12 00:36:19;;;;;;;20.20;8.20;;;;;;;-6.45;100.00;100029.63;5137667;28;20047;-64
2023/01/12 00:38:47;;;;;;;17.17;7.60;;;;;;;-6.87;100.00;100015.56;5137958;28;20083;-60
2023/01/12 00:45:20;;;;;;;11.82;6.60;;;;;;;-6.74;100.00;100027.88;5137521;28;20062;-64
2023/01/12 00:46:45;;;;;;;21.98;8.60;;;;;;;-6.35;100.00;100004.25;5137648;28;20058;-61
2023/01/12 00:49:11;;;;;;;24.08;8.27;;;;;;;-6.92;100.00;100000.28;5137467;28;20057;-63
2023/01/12 00:51:38;;;;;;;24.50;8.77;;;;;;;-6.54;100.00;100000.88;5137665;28;20043;-62
2023/01/12 00:54:07;;;;;;;31.75;9.65;;;;;;;-6.19;100.00;99999.00;5137457;28;20058;-61
2023/01/12 00:56:33;;;;;;;28.30;7.72;;;;;;;-6.72;100.00;99975.13;5137716;28;20047;-62
2023/01/12 00:58:59;;;;;;;22.35;9.10;;;;;;;-6.54;100.00;99972.34;5137391;28;20142;-59
2023/01/12 01:01:26;;;;;;;15.95;7.28;;;;;;;-6.95;100.00;99975.94;5137705;28;20054;-62
2023/01/12 01:03:53;;;;;;;17.90;7.72;;;;;;;-6.63;100.00;99971.06;5137113;28;20104;-63
2023/01/12 01:06:19;;;;;;;18.85;8.45;;;;;;;-6.58;100.00;99963.19;5137462;28;20058;-60
2023/01/12 01:08:47;;;;;;;21.73;9.07;;;;;;;-6.29;100.00;99969.44;5137447;28;20055;-61
2023/01/12 01:11:14;;;;;;;16.42;8.30;;;;;;;-6.79;100.00;99967.25;5137091;27;20089;-61
2023/01/12 01:13:42;;;;;;;22.02;7.13;;;;;;;-6.74;100.00;99967.34;5140648;28;20476;-63
2023/01/12 01:16:11;;;;;;;17.98;8.40;;;;;;;-6.74;100.00;99967.34;5140794;28;20217;-64
2023/01/12 01:18:38;;;;;;;13.07;7.35;;;;;;;-6.46;100.00;99960.53;5140647;28;20051;-60
2023/01/12 01:21:05;;;;;;;20.95;8.32;;;;;;;-6.41;100.00;99955.28;5140823;28;20047;-61
2023/01/12 01:23:34;;;;;;;16.83;8.95;;;;;;;-6.77;100.00;99943.00;5141077;28;20320;-63
2023/01/12 01:26:02;;;;;;;18.77;8.02;;;;;;;-6.95;100.00;99944.75;5140615;28;20480;-64
2023/01/12 01:28:28;;;;;;;18.45;6.85;;;;;;;-7.04;100.00;99959.44;5141108;28;20070;-64
2023/01/12 01:31:02;;;;;;;23.65;8.90;;;;;;;-6.91;100.00;99961.09;5140581;28;20416;-61
2023/01/12 01:33:28;;;;;;;18.52;7.45;;;;;;;-6.79;100.00;99958.44;5140491;28;20063;-63
2023/01/12 01:35:56;;;;;;;14.93;7.88;;;;;;;-7.05;100.00;99949.03;5140813;28;20320;-62
2023/01/12 01:38:22;;;;;;;13.82;6.72;;;;;;;-6.52;100.00;99953.44;5140457;28;20388;-63
2023/01/12 01:40:48;;;;;;;21.08;9.32;;;;;;;-6.84;100.00;99948.47;5140544;28;20055;-62
2023/01/12 01:43:17;;;;;;;16.88;7.93;;;;;;;-7.06;100.00;99942.06;5140255;28;20055;-63
2023/01/12 01:45:48;;;;;;;14.02;7.63;;;;;;;-6.85;100.00;99946.03;5140722;28;20043;-62
2023/01/12 01:48:16;;;;;;;20.08;7.65;;;;;;;-6.98;100.00;99945.22;5140327;28;20047;-62
2023/01/12 01:50:48;;;;;;;20.67;7.07;;;;;;;-6.82;100.00;99951.72;5140739;28;20055;-61
2023/01/12 01:53:20;;;;;;;24.35;9.00;;;;;;;-6.75;100.00;99954.25;5140213;28;20119;-61
2023/01/12 01:55:51;;;;;;;23.58;9.35;;;;;;;-6.77;100.00;99949.16;5140118;28;20421;-62
2023/01/12 01:58:22;;;;;;;20.88;9.15;;;;;;;-6.77;100.00;99951.00;5140178;28;20055;-62
2023/01/12 02:00:48;;;;;;;27.52;10.70;;;;;;;-6.77;100.00;99954.47;5140311;28;20382;-63
2023/01/12 02:03:16;;;;;;;9.30;5.50;;;;;;;-7.03;100.00;99950.44;5139999;28;20090;-60
2023/01/12 02:05:48;;;;;;;22.60;9.27;;;;;;;-6.79;100.00;99943.25;5139945;28;20051;-64
2023/01/12 02:08:23;;;;;;;28.33;8.07;;;;;;;-6.92;100.00;99944.28;5140354;28;20136;-62
2023/01/12 02:10:51;;;;;;;21.17;10.32;;;;;;;-6.90;100.00;99950.22;5140028;28;20047;-60
2023/01/12 02:16:21;;;;;;;32.15;11.43;;;;;;;-6.96;100.00;99937.00;5139972;28;20050;-65
2023/01/12 02:19:12;;;;;;;22.63;9.90;;;;;;;-7.06;100.00;99934.91;5139923;28;20055;-61
2023/01/12 02:22:10;;;;;;;26.15;9.95;;;;;;;-6.95;100.00;99933.28;5140154;28;20047;-62
2023/01/12 02:25:03;;;;;;;29.30;11.00;;;;;;;-6.88;100.00;99937.44;5139278;27;20111;-61
2023/01/12 02:27:49;;;;;;;34.72;11.38;;;;;;;-6.75;100.00;99932.94;5139621;28;20087;-64
2023/01/12 02:30:39;;;;;;;26.95;10.40;;;;;;;-6.84;100.00;99939.66;5140002;28;20062;-60
2023/01/12 02:33:21;;;;;;;21.52;9.88;;;;;;;-7.15;100.00;99923.75;5139593;28;20055;-64
2023/01/12 02:35:54;;;;;;;27.02;11.15;;;;;;;-6.85;100.00;99922.03;5139936;28;20053;-64
2023/01/12 02:38:35;;;;;;;29.10;11.27;;;;;;;-6.71;100.00;99918.91;5139563;28;20076;-62
2023/01/12 02:41:08;;;;;;;39.13;12.30;;;;;;;-6.41;100.00;99928.59;5139419;28;20484;-62
2023/01/12 02:43:38;;;;;;;32.33;9.80;;;;;;;-6.81;100.00;99936.53;5139723;28;20058;-63
2023/01/12 02:46:12;;;;;;;35.10;12.02;;;;;;;-6.62;100.00;99927.38;5139563;28;20051;-64
2023/01/12 02:48:46;;;;;;;21.70;9.93;;;;;;;-6.98;100.00;99921.22;5139756;28;20051;-60
2023/01/12 02:51:17;;;;;;;34.28;12.32;;;;;;;-7.07;100.00;99903.94;5139390;28;20115;-62
2023/01/12 02:53:48;;;;;;;20.38;7.93;;;;;;;-7.22;100.00;99914.25;5139689;28;20061;-63
2023/01/12 02:56:20;;;;;;;20.02;9.93;;;;;;;-7.36;100.00;99898.47;5139242;28;20110;-57
2023/01/12 02:58:51;;;;;;;25.95;10.70;;;;;;;-7.19;100.00;99898.63;5139110;28;20047;-64
2023/01/12 03:01:19;;;;;;;36.78;11.23;;;;;;;-7.05;100.00;99896.53;5139141;28;20142;-64
2023/01/12 03:03:47;;;;;;;36.17;11.50;;;;;;;-7.14;100.00;99884.59;5138927;28;20051;-64
2023/01/12 03:06:15;;;;;;;18.63;8.75;;;;;;;-7.35;100.00;99881.44;5139392;28;20089;-62
2023/01/12 03:08:41;;;;;;;28.13;10.82;;;;;;;-7.13;100.00;99865.72;5138962;28;20424;-63
2023/01/12 03:11:11;;;;;;;31.40;13.07;;;;;;;-6.60;100.00;99863.09;5139213;28;20412;-61
2023/01/12 03:13:43;;;;;;;35.78;11.23;;;;;;;-7.16;100.00;99876.03;5139001;28;20047;-62
2023/01/12 03:16:12;;;;;;;26.73;11.35;;;;;;;-7.23;100.00;99870.81;5138845;28;20058;-59
2023/01/12 03:18:46;;;;;;;26.65;10.48;;;;;;;-7.06;100.00;99870.09;5139026;28;20069;-59
2023/01/12 03:21:17;;;;;;;31.02;10.57;;;;;;;-7.02;100.00;99857.97;5139304;28;20051;-61
2023/01/12 03:23:47;;;;;;;20.63;8.00;;;;;;;-7.16;100.00;99868.84;5138703;28;20053;-60
2023/01/12 03:26:17;;;;;;;23.90;11.15;;;;;;;-6.91;100.00;99862.47;5138944;28;20057;-62
2023/01/12 03:28:49;;;;;;;32.00;11.55;;;;;;;-6.59;100.00;99864.75;5139016;28;20058;-64
2023/01/12 03:31:15;;;;;;;26.55;11.52;;;;;;;-6.74;100.00;99867.88;5138775;28;20055;-64
2023/01/12 03:33:44;;;;;;;18.17;8.43;;;;;;;-7.06;100.00;99886.09;5138777;28;20054;-60
2023/01/12 03:36:19;;;;;;;24.65;10.80;;;;;;;-7.06;100.00;99878.94;5137698;27;20434;-61
2023/01/12 03:38:54;;;;;;;22.70;9.05;;;;;;;-7.26;100.00;99881.09;5138945;28;20100;-60
2023/01/12 03:41:29;;;;;;;22.10;10.25;;;;;;;-7.12;100.00;99878.00;5138539;28;20473;-61
2023/01/12 03:44:00;;;;;;;25.70;10.13;;;;;;;-7.40;100.00;99875.97;5138582;28;20073;-64
2023/01/12 03:46:33;;;;;;;29.67;10.90;;;;;;;-7.38;100.00;99865.13;5138688;28;20047;-62
2023/01/12 03:49:05;;;;;;;32.78;10.50;;;;;;;-7.44;100.00;99855.38;5138287;28;20079;-64
2023/01/12 03:51:37;;;;;;;36.30;14.75;;;;;;;-7.37;100.00;99846.22;5138506;28;20083;-60
2023/01/12 03:54:06;;;;;;;32.45;12.77;;;;;;;-7.29;100.00;99855.75;5138330;28;20142;-59
2023/01/12 03:56:35;;;;;;;28.52;11.30;;;;;;;-7.47;100.00;99843.31;5138674;28;20423;-62
2023/01/12 03:59:03;;;;;;;24.40;9.88;;;;;;;-7.20;100.00;99840.22;5138120;28;20051;-61
2023/01/12 04:01:29;;;;;;;21.27;9.23;;;;;;;-7.38;100.00;99844.59;5138589;28;20043;-65
2023/01/12 04:03:56;;;;;;;36.65;12.65;;;;;;;-7.10;100.00;99843.09;5138014;28;20416;-64
2023/01/12 04:06:22;;;;;;;25.25;11.68;;;;;;;-7.45;100.00;99838.59;5138331;28;20047;-61
2023/01/12 04:08:49;;;;;;;30.10;11.43;;;;;;;-7.20;100.00;99832.22;5138132;28;20051;-64
2023/01/12 04:14:11;;;;;;;27.17;11.40;;;;;;;-7.41;100.00;99849.59;5075465;28;20139;-63
2023/01/12 04:16:37;;;;;;;26.27;10.75;;;;;;;-7.20;100.00;99856.19;5122781;28;20047;-61
2023/01/12 04:19:03;;;;;;;36.85;12.07;;;;;;;-7.19;100.00;99845.31;5138275;28;20051;-62
2023/01/12 04:24:14;;;;;;;27.50;11.27;;;;;;;-7.21;100.00;99854.59;5138236;28;20100;-60
2023/01/12 04:26:41;;;;;;;21.67;9.95;;;;;;;-7.25;100.00;99864.91;5138077;28;20336;-63
2023/01/12 04:29:07;;;;;;;24.15;10.50;;;;;;;-7.08;100.00;99870.34;5137951;28;20093;-61
2023/01/12 04:31:33;;;;;;;33.35;12.32;;;;;;;-7.12;100.00;99872.66;5137874;28;20047;-64
2023/01/12 04:33:59;;;;;;;26.98;11.13;;;;;;;-6.78;100.00;99866.75;5137866;28;20061;-60
2023/01/12 04:36:25;;;;;;;28.90;11.60;;;;;;;-7.14;100.00;99874.72;5137981;28;20043;-64
2023/01/12 04:38:52;;;;;;;25.42;10.43;;;;;;;-7.34;100.00;99867.06;5137489;28;20046;-60
2023/01/12 04:41:19;;;;;;;41.78;12.45;;;;;;;-6.86;100.00;99865.25;5137756;28;20053;-63
2023/01/12 04:43:45;;;;;;;54.03;10.30;;;;;;;-7.33;100.00;99875.88;5137189;28;20103;-62
2023/01/12 04:46:11;;;;;;;36.25;13.52;;;;;;;-6.74;100.00;99876.69;5137679;27;20465;-62
2023/01/12 04:48:39;;;;;;;29.02;10.77;;;;;;;-7.28;100.00;99883.19;5137356;28;20051;-64
2023/01/12 04:51:06;;;;;;;28.80;11.35;;;;;;;-6.48;100.00;99879.91;5137861;28;20043;-70
2023/01/12 04:53:32;;;;;;;22.23;9.52;;;;;;;-7.18;100.00;99884.25;5137238;28;20047;-62
2023/01/12 04:56:02;;;;;;;27.42;11.23;;;;;;;-6.80;100.00;99884.81;5137158;28;20059;-65
2023/01/12 04:58:28;;;;;;;22.27;10.15;;;;;;;-6.88;100.00;99886.78;5137356;28;20130;-60
2023/01/12 05:00:55;;;;;;;36.20;11.30;;;;;;;-7.25;100.00;99888.06;5137264;28;20051;-55
2023/01/12 05:03:21;;;;;;;32.58;10.57;;;;;;;-7.16;100.00;99892.81;5137368;28;20065;-66
2023/01/12 05:05:47;;;;;;;36.47;10.52;;;;;;;-6.75;100.00;99883.06;5137242;28;20320;-56
2023/01/12 05:10:59;;;;;;;25.63;11.00;;;;;;;-7.09;100.00;99882.06;5137141;28;20058;-59
2023/01/12 05:13:29;;;;;;;26.50;11.02;;;;;;;-7.19;100.00;99887.97;5137457;28;20058;-62
2023/01/12 05:15:55;;;;;;;29.10;11.65;;;;;;;-6.69;100.00;99873.34;5136704;28;20046;-60
2023/01/12 05:18:22;;;;;;;25.70;11.55;;;;;;;-7.04;100.00;99871.50;5136943;28;20091;-56
2023/01/12 05:20:48;;;;;;;36.20;12.50;;;;;;;-6.76;100.00;99884.13;5136953;28;20055;-60
2023/01/12 05:23:15;;;;;;;33.65;11.73;;;;;;;-7.26;100.00;99881.09;5136483;28;20183;-64
2023/01/12 05:25:41;;;;;;;34.17;11.35;;;;;;;-7.21;100.00;99878.56;5136654;28;20142;-60
2023/01/12 05:28:07;;;;;;;32.25;11.23;;;;;;;-6.70;100.00;99877.84;5136625;28;20138;-64
2023/01/12 05:30:33;;;;;;;30.75;9.00;;;;;;;-7.11;100.00;99868.94;5136966;28;20383;-59
2023/01/12 05:33:00;;;;;;;35.88;11.55;;;;;;;-7.34;100.00;99885.72;5136552;28;20055;-65
2023/01/12 05:35:26;;;;;;;26.80;10.82;;;;;;;-7.16;100.00;99884.03;5137035;28;20047;-60
2023/01/12 05:37:54;;;;;;;31.73;11.82;;;;;;;-7.41;100.00;99877.03;5136755;28;20393;-66
2023/01/12 05:40:20;;;;;;;25.42;10.07;;;;;;;-7.48;100.00;99884.31;5137000;28;20317;-58
2023/01/12 05:45:34;;;;;;;28.35;9.82;;;;;;;-7.47;100.00;99882.47;5136545;28;20062;-65
2023/01/12 05:48:01;;;;;;;33.15;11.20;;;;;;;-7.11;100.00;99879.59;5136526;28;20424;-65
2023/01/12 05:50:28;;;;;;;20.45;9.85;;;;;;;-7.34;100.00;99892.91;5136529;28;20134;-59
2023/01/12 05:52:55;;;;;;;28.73;12.18;;;;;;;-7.46;100.00;99900.06;5136820;28;20380;-67
2023/01/12 05:55:21;;;;;;;33.22;11.98;;;;;;;-7.00;100.00;99880.66;5136351;28;20427;-55
2023/01/12 05:57:47;;;;;;;29.35;13.20;;;;;;;-7.27;100.00;99890.13;5137294;27;20078;-62
2023/01/12 06:00:14;;;;;;;44.75;14.40;;;;;;;-7.02;100.00;99896.06;5140031;28;20062;-59
2023/01/12 06:02:41;;;;;;;25.48;10.32;;;;;;;-7.19;100.00;99900.47;5140489;28;20047;-66
2023/01/12 06:05:09;;;;;;;19.00;7.78;;;;;;;-7.51;100.00;99902.63;5140331;28;20055;-63
2023/01/12 06:07:36;;;;;;;26.52;11.27;;;;;;;-7.39;100.00;99892.81;5140269;28;20115;-61
2023/01/12 06:10:03;;;;;;;18.73;7.40;;;;;;;-7.52;100.00;99893.00;5139464;28;20071;-68
2023/01/12 06:15:14;;;;;;;23.85;11.05;;;;;;;-7.47;100.00;99875.28;5139916;28;20080;-67
2023/01/12 06:17:40;;;;;;;27.85;11.98;;;;;;;-7.32;100.00;99868.72;5139388;28;20047;-62
2023/01/12 06:20:09;;;;;;;30.17;11.70;;;;;;;-6.86;100.00;99867.91;5139510;28;20062;-58
2023/01/12 06:22:35;;;;;;;20.77;8.02;;;;;;;-7.05;100.00;99869.88;5139577;28;20050;-60
2023/01/12 06:25:01;;;;;;;26.17;9.75;;;;;;;-7.09;100.00;99871.41;5139634;28;20100;-70
2023/01/12 06:27:30;;;;;;;25.20;11.43;;;;;;;-7.22;100.00;99879.63;5139230;28;20062;-60
2023/01/12 06:29:57;;;;;;;31.23;11.30;;;;;;;-7.10;100.00;99867.09;5139639;28;20058;-59
2023/01/12 06:32:23;;;;;;;33.03;11.95;;;;;;;-7.37;100.00;99864.06;5139060;28;20374;-62
2023/01/12 06:34:49;;;;;;;17.45;8.13;;;;;;;-7.39;100.00;99860.84;5139667;28;20047;-57
2023/01/12 06:37:16;;;;;;;25.15;9.95;;;;;;;-7.03;100.00;99859.81;5139132;28;20094;-63
2023/01/12 06:39:42;;;;;;;32.67;14.90;;;;;;;-7.16;100.00;99865.38;5139319;28;20054;-60
2023/01/12 06:42:28;;;;;;;27.23;11.65;;;;;;;-7.17;100.00;99869.88;5139336;28;20150;-61
2023/01/12 06:44:54;;;;;;;18.40;6.97;;;;;;;-7.36;100.00;99871.84;5139043;28;20055;-58
2023/01/12 06:47:20;;;;;;;27.05;10.18;;;;;;;-7.09;100.00;99860.75;5139523;28;20084;-67
2023/01/12 06:49:47;;;;;;;31.45;11.40;;;;;;;-6.93;100.00;99867.19;5139072;28;20383;-67
2023/01/12 06:52:13;;;;;;;23.73;10.57;;;;;;;-7.43;100.00;99875.63;5139278;28;20055;-58
2023/01/12 06:54:40;;;;;;;18.17;6.70;;;;;;;-7.30;100.00;99882.59;5138854;28;20050;-65
2023/01/12 06:57:06;;;;;;;23.08;7.88;;;;;;;-7.58;100.00;99884.88;5139229;28;20054;-60
2023/01/12 06:59:32;;;;;;;40.08;15.07;;;;;;;-7.32;100.00;99872.19;5138573;28;20119;-68
2023/01/12 07:01:58;;;;;;;34.03;10.73;;;;;;;-7.35;100.00;99862.81;5138921;28;20061;-59
2023/01/12 07:04:25;;;;;;;24.17;9.85;;;;;;;-7.17;100.00;99869.06;5138795;28;20086;-67
2023/01/12 07:06:53;;;;;;;46.28;20.80;;;;;;;-6.70;100.00;99840.50;5138636;28;20047;-60
2023/01/12 07:09:20;;;;;;;24.20;9.10;;;;;;;-7.29;100.00;99865.59;5137838;27;20058;-68
2023/01/12 07:11:47;;;;;;;29.55;12.25;;;;;;;-7.37;100.00;99875.53;5138763;28;20392;-60
2023/01/12 07:14:13;;;;;;;22.00;10.05;;;;;;;-7.17;100.00;99867.19;5138872;28;20154;-65
2023/01/12 07:16:39;;;;;;;39.78;13.77;;;;;;;-6.95;100.00;99840.78;5138617;28;20416;-58
2023/01/12 07:19:06;;;;;;;29.65;12.07;;;;;;;-7.17;100.00;99853.06;5138411;28;20078;-63
2023/01/12 07:21:32;;;;;;;24.73;9.15;;;;;;;-7.28;100.00;99861.88;5138496;28;20137;-63
2023/01/12 07:23:58;;;;;;;21.33;9.27;;;;;;;-7.40;100.00;99862.66;5138664;28;20436;-61
2023/01/12 07:26:24;;;;;;;20.38;9.07;;;;;;;-7.27;100.00;99864.31;5138361;28;20054;-64
2023/01/12 07:28:51;;;;;;;17.05;8.50;;;;;;;-7.48;100.00;99852.38;5138620;28;20130;-63
2023/01/12 07:31:18;;;;;;;26.00;10.85;;;;;;;-7.40;100.00;99833.38;5138456;28;20051;-55
2023/01/12 07:33:44;;;;;;;27.90;12.20;;;;;;;-7.14;100.00;99834.75;5138264;28;20062;-59
2023/01/12 07:36:11;;;;;;;30.75;10.18;;;;;;;-7.32;100.00;99832.22;5138413;28;20057;-65
2023/01/12 07:38:37;;;;;;;14.13;6.07;;;;;;;-7.23;100.00;99822.84;5138344;28;20061;-66
2023/01/12 07:41:04;;;;;;;20.73;8.85;;;;;;;-7.27;100.00;99831.53;5138331;28;20316;-62
2023/01/12 07:43:32;;;;;;;30.85;10.45;;;;;;;-6.97;100.00;99821.53;5138098;28;20401;-63
2023/01/12 07:45:59;;;;;;;21.55;10.70;;;;;;;-7.23;100.00;99849.50;5138741;28;20051;-60
2023/01/12 07:48:26;;;;;;;31.85;13.38;;;;;;;-6.84;100.00;99825.00;5138311;28;20074;-65
2023/01/12 07:50:52;;;;;;;18.58;9.25;;;;;;;-6.80;100.00;99842.16;5138383;28;20128;-60
2023/01/12 07:53:19;;;;;;;25.25;9.32;;;;;;;-6.86;100.00;99835.91;5138048;28;20078;-60
2023/01/12 07:55:45;;;;;;;24.65;9.60;;;;;;;-6.89;100.00;99847.06;5138430;28;20043;-64
2023/01/12 07:58:11;;;;;;;24.65;8.45;;;;;;;-6.93;100.00;99861.88;5137838;28;20104;-60
2023/01/12 08:00:38;;;;;;;15.68;6.97;;;;;;;-7.05;100.00;99863.75;5137752;28;20396;-63
2023/01/12 08:03:06;;;;;;;23.80;9.88;;;;;;;-6.90;100.00;99864.91;5138037;28;20369;-60
2023/01/12 08:05:33;;;;;;;29.98;11.68;;;;;;;-6.94;100.00;99879.72;5138025;28;20097;-60
2023/01/12 08:08:00;;;;;;;19.23;8.05;;;;;;;-6.98;100.00;99886.56;5137853;28;20435;-58
2023/01/12 08:10:26;;;;;;;16.60;7.10;;;;;;;-6.98;100.00;99875.09;5137920;28;20116;-61
2023/01/12 08:12:53;;;;;;;16.35;7.15;;;;;;;-6.88;100.00;99872.66;5138037;28;20079;-64
2023/01/12 08:15:19;;;;;;;25.25;10.63;;;;;;;-6.75;100.00;99876.94;5137630;28;20302;-62
2023/01/12 08:17:51;;;;;;;26.67;10.02;;;;;;;-6.91;100.00;99863.25;5137890;28;20352;-69
2023/01/12 08:20:22;;;;;;;22.80;10.30;;;;;;;-6.18;100.00;99869.84;5137191;27;20340;-62
2023/01/12 08:22:52;;;;;;;22.85;10.00;;;;;;;-6.57;100.00;99882.13;5137877;28;20134;-63
2023/01/12 08:25:25;;;;;;;26.17;10.40;;;;;;;-6.12;100.00;99868.09;5137545;28;20059;-65
2023/01/12 08:27:53;;;;;;;26.02;10.95;;;;;;;-6.16;100.00;99888.28;5137426;28;20336;-58
2023/01/12 08:30:24;;;;;;;19.40;9.30;;;;;;;-6.26;100.00;99902.25;5137637;28;20047;-59
2023/01/12 08:32:50;;;;;;;21.70;9.48;;;;;;;-6.07;100.00;99908.19;5137333;28;20188;-59
2023/01/12 08:35:22;;;;;;;22.80;10.57;;;;;;;-6.56;100.00;99906.94;5137652;28;20119;-65
2023/01/12 08:37:48;;;;;;;22.67;9.10;;;;;;;-6.47;100.00;99901.00;5137243;28;20047;-62
2023/01/12 08:40:14;;;;;;;24.40;10.10;;;;;;;-6.49;100.00;99903.09;5137710;28;20107;-61
2023/01/12 08:42:41;;;;;;;17.83;8.15;;;;;;;-6.48;100.00;99910.06;5137214;28;20137;-65
2023/01/12 08:45:08;;;;;;;83.45;30.83;;;;;;;-6.14;100.00;99902.19;5137598;28;20192;-61
2023/01/12 08:47:36;;;;;;;28.50;9.70;;;;;;;-6.33;100.00;99896.25;5137230;28;20483;-58
2023/01/12 08:50:04;;;;;;;26.67;11.15;;;;;;;-5.98;100.00;99892.63;5137293;28;20067;-65
2023/01/12 08:52:31;;;;;;;27.08;12.00;;;;;;;-6.14;100.00;99912.06;5137370;28;20050;-59
2023/01/12 08:54:58;;;;;;;27.30;9.77;;;;;;;-6.29;100.00;99900.06;5137107;28;20062;-57
2023/01/12 08:57:24;;;;;;;28.88;9.55;;;;;;;-6.12;100.00;99912.66;5137454;28;20374;-58
2023/01/12 08:59:50;;;;;;;25.15;8.88;;;;;;;-6.27;100.00;99902.47;5136949;28;20049;-64
2023/01/12 09:02:16;;;;;;;28.50;12.20;;;;;;;-6.15;100.00;99908.59;5137056;28;20464;-58
2023/01/12 09:04:43;;;;;;;19.63;9.02;;;;;;;-6.18;100.00;99904.53;5136904;28;20451;-63
2023/01/12 09:07:11;;;;;;;25.25;10.02;;;;;;;-6.14;100.00;99904.88;5137210;28;20134;-61
2023/01/12 09:09:38;;;;;;;22.25;9.93;;;;;;;-6.26;100.00;99906.78;5137000;28;20043;-64
2023/01/12 09:12:05;;;;;;;26.55;10.85;;;;;;;-6.04;100.00;99906.94;5137437;28;20116;-58
2023/01/12 09:14:37;;;;;;;25.92;10.63;;;;;;;-6.04;100.00;99909.59;5136815;28;20047;-58
2023/01/12 09:17:04;;;;;;;10.63;5.68;;;;;;;-6.25;100.00;99906.53;5137144;28;20059;-60
2023/01/12 09:19:30;;;;;;;20.15;8.98;;;;;;;-6.19;100.00;99918.94;5136831;28;20063;-64
2023/01/12 09:21:56;;;;;;;17.65;7.00;;;;;;;-6.34;100.00;99925.81;5136601;28;20349;-56
2023/01/12 09:24:22;;;;;;;24.35;10.65;;;;;;;-6.32;100.00;99921.88;5136867;28;20316;-65
2023/01/12 09:26:49;;;;;;;32.15;10.82;;;;;;;-5.90;100.00;99918.91;5136681;28;20403;-56
2023/01/12 09:29:15;;;;;;;27.00;11.18;;;;;;;-6.18;100.00;99915.22;5137011;28;20047;-61
2023/01/12 09:31:43;;;;;;;26.55;9.95;;;;;;;-6.31;100.00;99904.78;5136406;28;20306;-62
2023/01/12 09:34:10;;;;;;;28.27;10.98;;;;;;;-6.06;100.00;99907.19;5139593;28;20143;-60
2023/01/12 09:36:38;;;;;;;25.50;11.23;;;;;;;-5.54;100.00;99898.19;5140262;28;20047;-64
2023/01/12 09:39:06;;;;;;;21.63;8.63;;;;;;;-5.99;100.00;99910.50;5140162;28;20051;-55
2023/01/12 09:47:18;;;;;;;30.63;9.25;;;;;;;-5.92;100.00;99924.50;5140548;28;20439;-64
2023/01/12 09:49:46;;;;;;;;;;;;;;;-6.17;100.00;99922.16;5140622;28;20092;-58
2023/01/12 09:52:17;;;;;;;35.85;11.07;;;;;;;-6.21;100.00;99925.53;5140445;28;20378;-61
2023/01/12 09:54:47;;;;;;;26.65;11.35;;;;;;;-6.06;100.00;99911.72;5139884;28;20417;-62
2023/01/12 09:57:46;;;;;;;17.52;6.15;;;;;;;-6.21;100.00;99901.53;5140057;28;20150;-60
2023/01/12 10:00:16;;;;;;;21.48;8.52;;;;;;;-6.31;100.00;99886.13;5139993;28;20047;-61
2023/01/12 10:02:48;;;;;;;27.65;10.70;;;;;;;-5.60;100.00;99853.75;5139920;28;20066;-60
2023/01/12 10:05:23;;;;;;;25.88;10.88;;;;;;;-5.89;100.00;99864.47;5140045;28;20454;-57
2023/01/12 10:07:55;;;;;;;23.95;9.07;;;;;;;-5.97;100.00;99854.19;5139693;28;20047;-60
2023/01/12 10:10:21;;;;;;;18.58;9.50;;;;;;;-5.89;100.00;99843.13;5140244;28;20051;-61
2023/01/12 10:12:54;;;;;;;17.30;7.05;;;;;;;-6.05;100.00;99858.06;5139847;28;20098;-63
2023/01/12 10:15:37;;;;;;;22.73;10.10;;;;;;;-6.11;100.00;99831.53;5139832;28;20138;-64
2023/01/12 10:18:08;;;;;;;28.50;10.68;;;;;;;-5.95;100.00;99817.41;5139532;28;20151;-64
2023/01/12 10:20:37;;;;;;;28.83;10.70;;;;;;;-6.00;100.00;99815.47;5139572;28;20408;-64
2023/01/12 10:23:11;;;;;;;17.42;7.95;;;;;;;-5.96;100.00;99810.44;5139753;28;20396;-63
2023/01/12 10:25:40;;;;;;;24.92;9.48;;;;;;;-5.75;100.00;99807.03;5139559;28;20054;-61
2023/01/12 10:28:13;;;;;;;18.40;8.30;;;;;;;-5.93;100.00;99828.63;5139740;28;20053;-59
2023/01/12 10:30:41;;;;;;;26.58;9.88;;;;;;;-5.75;100.00;99812.38;5139395;28;20050;-55
2023/01/12 10:33:13;;;;;;;19.35;7.90;;;;;;;-5.96;100.00;99813.94;5139828;28;20047;-61
2023/01/12 10:35:52;;;;;;;17.75;9.65;;;;;;;-5.95;100.00;99809.38;5139211;28;20146;-62
2023/01/12 10:38:25;;;;;;;30.02;13.52;;;;;;;-5.26;100.00;99799.25;5139186;28;20093;-64
2023/01/12 10:41:13;;;;;;;27.77;9.93;;;;;;;-5.51;100.00;99796.19;5139523;28;20330;-57
2023/01/12 10:43:41;;;;;;;19.50;7.93;;;;;;;-5.68;100.00;99797.00;5138914;27;20081;-60
2023/01/12 10:46:14;;;;;;;24.17;8.48;;;;;;;-5.78;100.00;99796.84;5139491;28;20104;-59
2023/01/12 10:48:42;;;;;;;21.52;10.25;;;;;;;-5.53;100.00;99790.25;5139237;28;20108;-59
2023/01/12 10:51:22;;;;;;;21.38;9.77;;;;;;;-5.49;100.00;99784.22;5139468;28;20054;-57
2023/01/12 10:53:51;;;;;;;15.88;7.88;;;;;;;-5.85;100.00;99782.84;5139221;28;20374;-57
2023/01/12 10:56:29;;;;;;;26.38;10.98;;;;;;;-5.37;100.00;99770.75;5138843;28;20055;-64
2023/01/12 10:58:59;;;;;;;24.88;10.07;;;;;;;-5.34;100.00;99791.63;5138972;28;20450;-59
2023/01/12 11:01:42;;;;;;;19.85;8.90;;;;;;;-5.13;100.00;99799.94;5139036;28;20057;-60
2023/01/12 11:04:12;;;;;;;29.98;10.25;;;;;;;-5.23;100.00;99814.81;5139085;28;20055;-57
2023/01/12 11:06:42;;;;;;;27.77;10.88;;;;;;;-5.19;100.00;99808.97;5138948;28;20123;-62
2023/01/12 11:09:21;;;;;;;31.05;11.13;;;;;;;-5.00;100.00;99818.31;5139292;28;20053;-60
2023/01/12 11:11:53;;;;;;;29.45;11.48;;;;;;;-5.00;100.00;99837.84;5138664;28;20440;-63
2023/01/12 11:14:25;;;;;;;28.58;11.52;;;;;;;-4.88;100.00;99837.75;5139079;28;20059;-56
2023/01/12 11:16:52;;;;;;;25.63;10.93;;;;;;;-5.12;100.00;99836.34;5138604;28;20051;-63
2023/01/12 11:19:21;;;;;;;30.10;9.63;;;;;;;-5.18;100.00;99848.00;5138892;28;20051;-61
2023/01/12 11:21:52;;;;;;;24.55;11.00;;;;;;;-4.75;100.00;99845.41;5138997;28;20047;-65
2023/01/12 11:24:31;;;;;;;30.20;11.23;;;;;;;-4.99;100.00;99852.84;5138953;28;20055;-57
2023/01/12 11:27:00;;;;;;;30.10;10.15;;;;;;;-4.96;100.00;99862.25;5138400;28;20151;-57
2023/01/12 11:29:37;;;;;;;23.00;10.75;;;;;;;-4.97;100.00;99860.59;5138355;28;20051;-58
2023/01/12 11:32:11;;;;;;;33.55;11.38;;;;;;;-4.37;100.00;99859.78;5138108;28;20047;-65
2023/01/12 11:34:47;;;;;;;26.05;9.38;;;;;;;-4.55;100.00;99868.94;5138560;28;20051;-62
2023/01/12 11:37:14;;;;;;;19.48;9.50;;;;;;;-4.52;100.00;99867.66;5138454;28;20428;-59
2023/01/12 11:39:44;;;;;;;27.83;14.35;;;;;;;-4.61;100.00;99861.09;5138563;28;20320;-62
2023/01/12 11:45:07;;;;;;;28.38;10.35;;;;;;;-4.82;100.00;99841.31;5138747;28;20054;-65
2023/01/12 11:47:35;;;;;;;21.33;9.57;;;;;;;-5.07;100.00;99855.09;5138105;28;20051;-57
2023/01/12 11:50:09;;;;;;;24.33;9.43;;;;;;;-5.08;100.00;99854.31;5138497;28;20103;-65